Time;durP1;ratioP1;P1;durP2;ratioP2;P2;SDS_P1;SDS_P2;PMS_P1;PMS_P2;Temp;Humidity;BMP_temperature;BMP_pressure;BME280_temperature;BME280_humidity;BME280_pressure;Samples;Min_cycle;Max_cycle;Signal;HPM_P1;HPM_P2
2022/08/22 00:00:31;;;;;;;1.53;1.50;;;;;;;;;;4974214;28;20485;-75
2022/08/22 00:02:57;;;;;;;2.10;2.10;;;;;;;;;;4973805;28;20450;-75
2022/08/22 00:05:23;;;;;;;1.87;1.77;;;;;;;;;;4973341;28;20501;-74
2022/08/22 00:08:08;;;;;;;3.67;2.73;;;;;;;;;;4974431;28;20437;-74
2022/08/22 00:10:56;;;;;;;1.67;1.67;;;;;;;;;;4973901;28;20441;-74
2022/08/22 00:13:27;;;;;;;2.50;1.70;;;;;;;;;;4972033;28;20492;-74
2022/08/22 00:16:07;;;;;;;1.37;1.33;;;;;;;;;;4973397;28;20513;-74
2022/08/22 00:18:38;;;;;;;2.27;1.40;;;;;;;;;;4972828;28;20441;-74
2022/08/22 00:21:17;;;;;;;3.80;1.87;;;;;;;;;;4972332;28;20975;-74
2022/08/22 00:23:47;;;;;;;2.10;1.40;;;;;;;;;;4973825;28;20525;-75
2022/08/22 00:26:24;;;;;;;2.43;1.40;;;;;;;;;;4973368;28;20497;-75
2022/08/22 00:29:01;;;;;;;2.00;1.90;;;;;;;;;;4973552;28;20422;-74
2022/08/22 00:31:43;;;;;;;2.40;2.20;;;;;;;;;;4973466;28;20465;-74
2022/08/22 00:34:09;;;;;;;1.50;1.50;;;;;;;;;;4973015;28;20453;-75
2022/08/22 00:36:42;;;;;;;1.80;1.80;;;;;;;;;;4972980;28;20430;-74
2022/08/22 00:39:26;;;;;;;1.93;1.83;;;;;;;;;;4973334;28;20446;-73
2022/08/22 00:41:52;;;;;;;1.70;1.60;;;;;;;;;;4973198;28;20477;-73
2022/08/22 00:44:31;;;;;;;3.43;1.77;;;;;;;;;;4972955;28;20501;-74
2022/08/22 00:46:59;;;;;;;3.37;1.43;;;;;;;;;;4973391;28;20705;-74
2022/08/22 00:49:34;;;;;;;2.20;1.60;;;;;;;;;;4973234;28;20433;-73
2022/08/22 00:52:03;;;;;;;1.43;1.43;;;;;;;;;;4971832;28;20479;-73
2022/08/22 00:54:48;;;;;;;1.43;1.33;;;;;;;;;;4971135;28;20478;-75
2022/08/22 00:57:23;;;;;;;1.83;1.73;;;;;;;;;;4971200;28;20533;-73
2022/08/22 01:00:12;;;;;;;1.67;1.57;;;;;;;;;;4972644;28;20428;-75
2022/08/22 01:02:41;;;;;;;1.87;1.77;;;;;;;;;;4973044;28;20786;-74
2022/08/22 01:05:07;;;;;;;4.40;1.90;;;;;;;;;;4971319;28;20442;-74
2022/08/22 01:07:33;;;;;;;1.40;1.33;;;;;;;;;;4973284;28;20485;-74
2022/08/22 01:10:17;;;;;;;1.60;1.50;;;;;;;;;;4972937;28;20456;-75
2022/08/22 01:12:47;;;;;;;1.67;1.60;;;;;;;;;;4973043;28;21064;-74
2022/08/22 01:15:15;;;;;;;1.80;1.70;;;;;;;;;;4972419;28;20448;-74
2022/08/22 01:17:59;;;;;;;1.40;1.40;;;;;;;;;;4972932;28;20438;-74
2022/08/22 01:20:48;;;;;;;8.33;1.60;;;;;;;;;;4971819;28;20441;-75
2022/08/22 01:23:33;;;;;;;1.30;1.30;;;;;;;;;;4972217;28;20445;-74
2022/08/22 01:26:17;;;;;;;2.00;1.90;;;;;;;;;;4972338;28;20422;-73
2022/08/22 01:29:02;;;;;;;1.80;1.70;;;;;;;;;;4972962;28;20609;-73
2022/08/22 01:31:43;;;;;;;1.50;1.50;;;;;;;;;;4971614;28;20465;-74
2022/08/22 01:34:28;;;;;;;1.70;1.60;;;;;;;;;;4971887;28;20441;-73
2022/08/22 01:37:13;;;;;;;5.20;2.40;;;;;;;;;;4971520;28;20519;-74
2022/08/22 01:39:42;;;;;;;2.40;2.20;;;;;;;;;;4972389;28;20537;-75
2022/08/22 01:42:11;;;;;;;1.27;1.17;;;;;;;;;;4971190;28;20450;-75
2022/08/22 01:44:49;;;;;;;6.43;1.80;;;;;;;;;;4972135;28;20434;-74
2022/08/22 01:47:38;;;;;;;2.50;1.53;;;;;;;;;;4971695;28;20442;-74
2022/08/22 01:50:22;;;;;;;4.60;2.43;;;;;;;;;;4972120;28;20446;-74
2022/08/22 01:52:51;;;;;;;3.27;2.00;;;;;;;;;;4972373;28;20489;-74
2022/08/22 01:55:26;;;;;;;1.30;1.30;;;;;;;;;;4971454;28;20482;-74
2022/08/22 01:57:56;;;;;;;4.93;1.93;;;;;;;;;;4971424;28;20422;-75
2022/08/22 02:00:24;;;;;;;2.10;2.00;;;;;;;;;;4971305;28;20429;-74
2022/08/22 02:02:51;;;;;;;3.53;2.07;;;;;;;;;;4971672;28;20792;-75
2022/08/22 02:05:17;;;;;;;4.20;2.57;;;;;;;;;;4972022;28;20442;-73
2022/08/22 02:07:56;;;;;;;5.53;2.40;;;;;;;;;;4971441;28;20520;-74
2022/08/22 02:10:22;;;;;;;2.63;2.43;;;;;;;;;;4971207;28;20485;-74
2022/08/22 02:13:07;;;;;;;4.53;2.30;;;;;;;;;;4972514;28;20478;-74
2022/08/22 02:15:39;;;;;;;3.93;2.90;;;;;;;;;;4971502;28;20288;-75
2022/08/22 02:18:05;;;;;;;1.93;1.90;;;;;;;;;;4969383;28;20949;-74
2022/08/22 02:20:38;;;;;;;2.27;2.10;;;;;;;;;;4971455;28;20442;-74
2022/08/22 02:23:14;;;;;;;2.63;1.80;;;;;;;;;;4971283;28;20432;-74
2022/08/22 02:25:55;;;;;;;2.70;2.60;;;;;;;;;;4970582;28;20444;-72
2022/08/22 02:28:41;;;;;;;2.20;2.17;;;;;;;;;;4969050;28;20461;-75
2022/08/22 02:31:09;;;;;;;1.97;1.97;;;;;;;;;;4971382;28;20417;-75
2022/08/22 02:33:44;;;;;;;1.90;1.80;;;;;;;;;;4969868;28;20450;-74
2022/08/22 02:36:29;;;;;;;2.40;1.63;;;;;;;;;;4970903;28;20449;-75
2022/08/22 02:39:16;;;;;;;1.67;1.67;;;;;;;;;;4969313;28;20440;-73
2022/08/22 02:41:48;;;;;;;3.33;1.70;;;;;;;;;;4970683;28;20438;-74
2022/08/22 02:44:21;;;;;;;4.97;2.00;;;;;;;;;;4970852;28;20481;-74
2022/08/22 02:46:53;;;;;;;2.07;1.97;;;;;;;;;;4970862;28;20478;-74
2022/08/22 02:49:19;;;;;;;3.53;2.20;;;;;;;;;;4971098;28;20441;-74
2022/08/22 02:51:50;;;;;;;4.47;2.13;;;;;;;;;;4970533;28;20469;-75
2022/08/22 02:54:27;;;;;;;5.93;2.57;;;;;;;;;;4970760;28;20195;-75
2022/08/22 02:57:00;;;;;;;2.00;1.90;;;;;;;;;;4970329;28;20417;-74
2022/08/22 02:59:26;;;;;;;2.47;2.27;;;;;;;;;;4971408;28;20442;-75
2022/08/22 03:01:52;;;;;;;8.70;2.37;;;;;;;;;;4970639;28;20438;-74
2022/08/22 03:04:30;;;;;;;3.10;1.80;;;;;;;;;;4970854;28;20198;-74
2022/08/22 03:06:59;;;;;;;1.77;1.67;;;;;;;;;;4969590;28;20958;-74
2022/08/22 03:09:28;;;;;;;1.80;1.70;;;;;;;;;;4969885;28;20469;-75
2022/08/22 03:12:18;;;;;;;1.90;1.90;;;;;;;;;;4970661;28;21026;-73
2022/08/22 03:14:47;;;;;;;2.33;2.00;;;;;;;;;;4969685;28;20441;-73
2022/08/22 03:17:15;;;;;;;41.07;3.63;;;;;;;;;;4970537;28;20442;-73
2022/08/22 03:20:01;;;;;;;1.77;1.67;;;;;;;;;;4977081;28;20445;-75
2022/08/22 03:22:34;;;;;;;1.63;1.57;;;;;;;;;;4976855;28;20438;-74
2022/08/22 03:25:06;;;;;;;2.03;1.90;;;;;;;;;;4976679;28;21058;-73
2022/08/22 03:27:44;;;;;;;2.20;2.10;;;;;;;;;;4976616;28;20421;-75
2022/08/22 03:30:17;;;;;;;2.13;1.90;;;;;;;;;;4976984;28;20874;-74
2022/08/22 03:32:48;;;;;;;2.13;1.93;;;;;;;;;;4977093;28;21006;-74
2022/08/22 03:35:25;;;;;;;1.60;1.60;;;;;;;;;;4976774;28;20434;-74
2022/08/22 03:37:54;;;;;;;1.80;1.80;;;;;;;;;;4977046;28;20420;-75
2022/08/22 03:40:34;;;;;;;2.47;2.20;;;;;;;;;;4976736;28;20438;-75
2022/08/22 03:43:18;;;;;;;8.73;1.93;;;;;;;;;;4976245;28;20464;-75
2022/08/22 03:45:50;;;;;;;1.90;1.90;;;;;;;;;;4976897;28;20467;-74
2022/08/22 03:48:16;;;;;;;1.87;1.77;;;;;;;;;;4976773;28;20919;-74
2022/08/22 03:50:54;;;;;;;1.63;1.63;;;;;;;;;;4976734;28;20440;-74
2022/08/22 03:53:23;;;;;;;3.93;1.87;;;;;;;;;;4976987;28;21012;-74
2022/08/22 03:55:52;;;;;;;2.83;1.90;;;;;;;;;;4976635;28;20489;-74
2022/08/22 03:58:40;;;;;;;2.10;2.00;;;;;;;;;;4976428;28;20834;-74
2022/08/22 04:01:16;;;;;;;1.97;1.80;;;;;;;;;;4976978;28;20434;-73
2022/08/22 04:04:00;;;;;;;1.50;1.50;;;;;;;;;;4975121;28;20444;-73
2022/08/22 04:06:30;;;;;;;1.67;1.67;;;;;;;;;;4976097;28;20508;-74
2022/08/22 04:09:15;;;;;;;1.93;1.83;;;;;;;;;;4977563;28;20444;-73
2022/08/22 04:11:59;;;;;;;6.10;3.47;;;;;;;;;;4976912;28;20477;-73
2022/08/22 04:14:25;;;;;;;3.87;2.70;;;;;;;;;;4976829;28;20430;-73
2022/08/22 04:17:10;;;;;;;2.03;1.73;;;;;;;;;;4974733;28;20442;-73
2022/08/22 04:19:37;;;;;;;2.93;2.10;;;;;;;;;;4976745;28;20221;-73
2022/08/22 04:22:06;;;;;;;1.93;1.83;;;;;;;;;;4976919;28;20429;-74
2022/08/22 04:24:53;;;;;;;1.57;1.57;;;;;;;;;;4976477;28;20528;-74
2022/08/22 04:27:46;;;;;;;1.80;1.80;;;;;;;;;;4976413;28;20456;-74
2022/08/22 04:30:12;;;;;;;1.87;1.77;;;;;;;;;;4972096;28;20426;-74
2022/08/22 04:32:38;;;;;;;3.50;1.60;;;;;;;;;;4973475;28;20544;-75
2022/08/22 04:35:15;;;;;;;1.57;1.57;;;;;;;;;;4972915;28;20191;-74
2022/08/22 04:37:49;;;;;;;4.30;1.77;;;;;;;;;;4973232;28;20567;-74
2022/08/22 04:40:28;;;;;;;2.40;1.93;;;;;;;;;;4973381;28;20520;-74
2022/08/22 04:43:14;;;;;;;1.70;1.60;;;;;;;;;;4972145;28;20516;-74
2022/08/22 04:45:48;;;;;;;2.07;1.90;;;;;;;;;;4972582;28;20472;-74
2022/08/22 04:48:32;;;;;;;2.57;2.10;;;;;;;;;;4971698;28;20457;-74
2022/08/22 04:51:07;;;;;;;1.93;1.93;;;;;;;;;;4971993;28;20438;-73
2022/08/22 04:53:48;;;;;;;6.83;2.53;;;;;;;;;;4973241;28;20535;-74
2022/08/22 04:56:24;;;;;;;1.77;1.67;;;;;;;;;;4972042;28;20479;-72
2022/08/22 04:59:11;;;;;;;7.30;2.30;;;;;;;;;;4973646;28;20432;-73
2022/08/22 05:02:07;;;;;;;1.50;1.50;;;;;;;;;;4968989;28;20426;-74
2022/08/22 05:04:57;;;;;;;2.10;2.10;;;;;;;;;;4970947;28;20434;-74
2022/08/22 05:07:38;;;;;;;4.93;2.53;;;;;;;;;;4970238;28;20437;-74
2022/08/22 05:10:18;;;;;;;7.00;1.60;;;;;;;;;;4970033;28;20438;-74
2022/08/22 05:12:48;;;;;;;2.07;2.00;;;;;;;;;;4972125;28;20489;-74
2022/08/22 05:15:22;;;;;;;2.93;2.10;;;;;;;;;;4971639;28;20526;-73
2022/08/22 05:17:53;;;;;;;3.63;2.70;;;;;;;;;;4972553;28;20429;-73
2022/08/22 05:20:20;;;;;;;4.03;3.23;;;;;;;;;;4971944;28;20977;-74
2022/08/22 05:22:51;;;;;;;4.50;2.63;;;;;;;;;;4972949;28;20464;-74
2022/08/22 05:25:18;;;;;;;3.50;3.27;;;;;;;;;;4970369;28;21904;-74
2022/08/22 05:27:48;;;;;;;3.07;2.47;;;;;;;;;;4971865;28;20472;-73
2022/08/22 05:30:20;;;;;;;8.13;2.00;;;;;;;;;;4973581;28;20855;-74
2022/08/22 05:32:46;;;;;;;2.20;2.10;;;;;;;;;;4970940;28;21705;-74
2022/08/22 05:35:12;;;;;;;2.20;2.20;;;;;;;;;;4972703;28;20443;-78
2022/08/22 05:37:47;;;;;;;3.10;2.10;;;;;;;;;;4972404;28;20861;-78
2022/08/22 05:40:19;;;;;;;2.40;2.20;;;;;;;;;;4972814;28;20452;-79
2022/08/22 05:42:45;;;;;;;4.10;2.10;;;;;;;;;;4971342;28;20446;-74
2022/08/22 05:45:12;;;;;;;1.60;1.60;;;;;;;;;;4971710;28;20584;-78
2022/08/22 05:47:41;;;;;;;12.07;2.13;;;;;;;;;;4972351;28;20444;-75
2022/08/22 05:50:10;;;;;;;3.97;2.37;;;;;;;;;;4971857;28;20444;-77
2022/08/22 05:52:36;;;;;;;5.37;2.47;;;;;;;;;;4972163;28;20485;-80
2022/08/22 05:55:05;;;;;;;7.33;1.67;;;;;;;;;;4971032;28;20544;-78
2022/08/22 05:57:33;;;;;;;4.73;2.60;;;;;;;;;;4971570;28;20457;-77
2022/08/22 06:00:10;;;;;;;2.60;2.03;;;;;;;;;;4970409;28;21026;-77
2022/08/22 06:02:58;;;;;;;3.73;3.10;;;;;;;;;;4971675;28;20476;-81
2022/08/22 06:05:26;;;;;;;3.27;2.80;;;;;;;;;;4971030;28;20446;-81
2022/08/22 06:07:56;;;;;;;2.90;2.70;;;;;;;;;;4970299;28;20422;-80
2022/08/22 06:10:39;;;;;;;1.50;1.50;;;;;;;;;;4972935;28;20433;-81
2022/08/22 06:13:19;;;;;;;3.33;2.00;;;;;;;;;;4970064;28;20568;-80
2022/08/22 06:16:08;;;;;;;9.20;2.90;;;;;;;;;;4970211;28;20425;-74
2022/08/22 06:18:35;;;;;;;4.70;3.73;;;;;;;;;;4971617;28;20560;-81
2022/08/22 06:21:07;;;;;;;7.27;3.63;;;;;;;;;;4971819;28;20438;-80
2022/08/22 06:23:38;;;;;;;2.40;2.03;;;;;;;;;;4970980;28;21633;-81
2022/08/22 06:26:04;;;;;;;7.20;2.60;;;;;;;;;;4970144;28;20442;-78
2022/08/22 06:28:36;;;;;;;2.17;2.00;;;;;;;;;;4971632;28;20428;-79
2022/08/22 06:31:03;;;;;;;12.53;2.13;;;;;;;;;;4971057;28;20417;-77
2022/08/22 06:33:31;;;;;;;3.40;2.20;;;;;;;;;;4970920;28;20481;-77
2022/08/22 06:38:53;;;;;;;3.53;2.20;;;;;;;;;;4970827;28;20445;-77
2022/08/22 06:41:20;;;;;;;2.80;2.53;;;;;;;;;;4970405;28;20461;-79
2022/08/22 06:43:49;;;;;;;2.47;2.27;;;;;;;;;;4970810;28;20442;-80
2022/08/22 06:46:15;;;;;;;2.17;2.07;;;;;;;;;;4970478;28;20434;-79
2022/08/22 06:48:42;;;;;;;2.03;1.93;;;;;;;;;;4970253;28;20461;-78
2022/08/22 06:51:11;;;;;;;1.90;1.80;;;;;;;;;;4970054;28;20430;-81
2022/08/22 06:53:47;;;;;;;2.50;2.40;;;;;;;;;;4967591;28;20520;-81
2022/08/22 06:56:19;;;;;;;2.93;2.17;;;;;;;;;;4969856;28;20501;-80
2022/08/22 06:58:47;;;;;;;2.00;1.90;;;;;;;;;;4969304;28;20438;-78
2022/08/22 07:01:15;;;;;;;5.80;2.40;;;;;;;;;;4970104;28;20436;-81
2022/08/22 07:03:52;;;;;;;2.30;2.30;;;;;;;;;;4970548;28;20441;-81
2022/08/22 07:06:20;;;;;;;2.50;2.30;;;;;;;;;;4969222;28;20950;-78
2022/08/22 07:08:52;;;;;;;5.13;2.30;;;;;;;;;;4969975;28;20525;-80
2022/08/22 07:11:24;;;;;;;2.77;2.53;;;;;;;;;;4970109;28;20430;-74
2022/08/22 07:13:53;;;;;;;3.23;2.17;;;;;;;;;;4970667;28;20490;-75
2022/08/22 07:16:24;;;;;;;2.87;2.30;;;;;;;;;;4970142;28;20518;-75
2022/08/22 07:18:52;;;;;;;2.53;2.40;;;;;;;;;;4969894;28;20454;-75
2022/08/22 07:21:29;;;;;;;4.27;2.73;;;;;;;;;;4971161;28;20440;-78
2022/08/22 07:23:55;;;;;;;8.57;2.20;;;;;;;;;;4968224;28;20441;-77
2022/08/22 07:26:37;;;;;;;2.17;2.07;;;;;;;;;;4968766;28;20438;-80
2022/08/22 07:29:02;;;;;;;2.67;2.57;;;;;;;;;;4968513;28;20440;-76
2022/08/22 07:31:37;;;;;;;3.40;2.27;;;;;;;;;;4970031;28;20525;-74
2022/08/22 07:34:03;;;;;;;2.23;2.13;;;;;;;;;;4969585;28;20445;-76
2022/08/22 07:36:35;;;;;;;3.90;2.23;;;;;;;;;;4968236;28;20490;-81
2022/08/22 07:39:16;;;;;;;2.93;2.60;;;;;;;;;;4968523;28;20605;-78
2022/08/22 07:41:51;;;;;;;2.57;2.40;;;;;;;;;;4969774;28;20437;-81
2022/08/22 07:44:24;;;;;;;3.20;2.43;;;;;;;;;;4969827;28;20834;-75
2022/08/22 07:46:58;;;;;;;2.73;1.93;;;;;;;;;;4968377;28;20429;-79
2022/08/22 07:49:28;;;;;;;2.40;2.20;;;;;;;;;;4969827;28;20545;-80
2022/08/22 07:51:57;;;;;;;4.57;2.90;;;;;;;;;;4968884;28;20477;-79
2022/08/22 07:54:26;;;;;;;2.70;2.60;;;;;;;;;;4968180;28;20453;-80
2022/08/22 07:57:12;;;;;;;6.13;2.80;;;;;;;;;;4969481;28;20441;-77
2022/08/22 07:59:46;;;;;;;4.23;2.87;;;;;;;;;;4970982;28;20536;-82
2022/08/22 08:02:13;;;;;;;2.53;2.27;;;;;;;;;;4970272;28;20513;-84
2022/08/22 08:04:40;;;;;;;2.70;2.30;;;;;;;;;;4971693;28;20430;-78
2022/08/22 08:07:07;;;;;;;6.80;2.37;;;;;;;;;;4973797;28;20521;-84
2022/08/22 08:09:36;;;;;;;7.17;2.93;;;;;;;;;;4974147;28;20449;-74
2022/08/22 08:12:04;;;;;;;4.10;2.60;;;;;;;;;;4970766;28;20559;-76
2022/08/22 08:14:31;;;;;;;4.43;2.47;;;;;;;;;;4974306;28;20448;-84
2022/08/22 08:17:01;;;;;;;2.87;1.93;;;;;;;;;;4972746;28;20429;-75
2022/08/22 08:19:29;;;;;;;3.13;2.83;;;;;;;;;;4972878;28;21021;-78
2022/08/22 08:21:56;;;;;;;6.73;2.17;;;;;;;;;;4972461;28;20930;-77
2022/08/22 08:24:23;;;;;;;4.00;2.30;;;;;;;;;;4972948;28;20434;-75
2022/08/22 08:29:37;;;;;;;5.37;3.30;;;;;;;;;;4972920;28;20846;-83
2022/08/22 08:32:04;;;;;;;1.80;1.70;;;;;;;;;;4972127;28;20477;-83
2022/08/22 08:34:34;;;;;;;2.23;2.13;;;;;;;;;;4972900;28;20484;-75
2022/08/22 08:37:07;;;;;;;3.40;2.40;;;;;;;;;;4971545;28;21994;-85
2022/08/22 08:39:36;;;;;;;4.53;1.80;;;;;;;;;;4972820;28;20931;-76
2022/08/22 08:42:02;;;;;;;2.57;2.37;;;;;;;;;;4972610;28;20426;-75
2022/08/22 08:44:28;;;;;;;12.03;2.03;;;;;;;;;;4973867;28;20520;-75
2022/08/22 08:46:56;;;;;;;1.93;1.83;;;;;;;;;;4972246;28;20544;-75
2022/08/22 08:49:47;;;;;;;9.53;2.67;;;;;;;;;;4972163;28;20201;-75
2022/08/22 08:52:32;;;;;;;11.90;2.30;;;;;;;;;;4972677;28;20489;-76
2022/08/22 08:55:21;;;;;;;2.90;2.23;;;;;;;;;;4971743;28;20474;-74
2022/08/22 08:57:52;;;;;;;4.43;2.57;;;;;;;;;;4971341;28;20598;-75
2022/08/22 09:00:42;;;;;;;5.00;2.30;;;;;;;;;;4973132;28;20426;-74
2022/08/22 09:03:11;;;;;;;6.67;3.00;;;;;;;;;;4971920;28;20434;-74
2022/08/22 09:05:37;;;;;;;2.37;2.17;;;;;;;;;;4972276;28;20437;-74
2022/08/22 09:08:06;;;;;;;5.50;2.47;;;;;;;;;;4972796;28;20430;-73
2022/08/22 09:10:56;;;;;;;2.17;1.93;;;;;;;;;;4972027;28;20461;-74
2022/08/22 09:13:32;;;;;;;4.87;1.93;;;;;;;;;;4971722;28;20486;-73
2022/08/22 09:16:17;;;;;;;2.40;2.20;;;;;;;;;;4971108;28;20994;-74
2022/08/22 09:19:02;;;;;;;3.50;2.07;;;;;;;;;;4971882;28;20446;-74
2022/08/22 09:21:54;;;;;;;2.40;1.87;;;;;;;;;;4972468;28;20505;-74
2022/08/22 09:24:20;;;;;;;3.80;2.47;;;;;;;;;;4972214;28;20445;-74
2022/08/22 09:26:47;;;;;;;3.03;2.47;;;;;;;;;;4972030;28;20414;-75
2022/08/22 09:29:12;;;;;;;2.40;2.13;;;;;;;;;;4972053;28;20194;-75
2022/08/22 09:31:54;;;;;;;2.23;2.13;;;;;;;;;;4973287;28;20891;-73
2022/08/22 09:34:29;;;;;;;7.13;2.63;;;;;;;;;;4970104;28;20196;-73
2022/08/22 09:37:06;;;;;;;3.57;2.20;;;;;;;;;;4970032;28;20448;-76
2022/08/22 09:39:43;;;;;;;2.27;2.13;;;;;;;;;;4972022;28;20926;-75
2022/08/22 09:42:30;;;;;;;1.67;1.57;;;;;;;;;;4970512;28;20433;-75
2022/08/22 09:45:19;;;;;;;6.47;2.13;;;;;;;;;;4971442;28;20520;-74
2022/08/22 09:47:57;;;;;;;4.10;2.17;;;;;;;;;;4970268;28;20434;-74
2022/08/22 09:50:35;;;;;;;2.40;2.13;;;;;;;;;;4972571;28;20923;-75
2022/08/22 09:53:15;;;;;;;2.53;2.20;;;;;;;;;;4970490;28;20488;-75
2022/08/22 09:55:51;;;;;;;2.50;2.40;;;;;;;;;;4971010;28;20548;-74
2022/08/22 09:58:37;;;;;;;4.33;2.53;;;;;;;;;;4971711;28;20441;-73
2022/08/22 10:01:15;;;;;;;6.50;2.23;;;;;;;;;;4971018;28;20464;-74
2022/08/22 10:03:59;;;;;;;14.10;2.40;;;;;;;;;;4971253;28;20465;-73
2022/08/22 10:06:32;;;;;;;6.03;2.33;;;;;;;;;;4971116;28;20430;-73
2022/08/22 10:09:06;;;;;;;2.10;2.00;;;;;;;;;;4971822;28;20442;-73
2022/08/22 10:11:35;;;;;;;2.40;2.30;;;;;;;;;;4969637;28;20500;-74
2022/08/22 10:14:16;;;;;;;5.33;2.77;;;;;;;;;;4970959;28;20787;-85
2022/08/22 10:16:48;;;;;;;2.43;2.30;;;;;;;;;;4971081;28;20433;-83
2022/08/22 10:19:37;;;;;;;2.90;2.70;;;;;;;;;;4971291;28;20453;-78
2022/08/22 10:22:22;;;;;;;2.70;2.47;;;;;;;;;;4969409;28;21139;-78
2022/08/22 10:25:04;;;;;;;4.23;2.80;;;;;;;;;;4971229;28;20441;-77
2022/08/22 10:27:51;;;;;;;2.10;1.97;;;;;;;;;;4969426;28;20556;-86
2022/08/22 10:30:19;;;;;;;2.03;2.00;;;;;;;;;;4970170;28;20454;-74
2022/08/22 10:32:49;;;;;;;2.00;1.90;;;;;;;;;;4969890;28;21029;-82
2022/08/22 10:35:34;;;;;;;6.33;2.30;;;;;;;;;;4969926;28;20549;-83
2022/08/22 10:38:26;;;;;;;3.80;1.70;;;;;;;;;;4971963;28;21249;-74
2022/08/22 10:40:55;;;;;;;2.80;2.17;;;;;;;;;;4968976;28;20440;-78
2022/08/22 10:43:30;;;;;;;3.30;2.00;;;;;;;;;;4971817;28;20525;-83
2022/08/22 10:46:02;;;;;;;2.40;2.30;;;;;;;;;;4968520;28;20489;-84
2022/08/22 10:48:31;;;;;;;1.43;1.43;;;;;;;;;;4971644;28;20454;-84
2022/08/22 10:51:06;;;;;;;1.87;1.77;;;;;;;;;;4970837;28;20445;-79
2022/08/22 10:53:47;;;;;;;2.40;1.80;;;;;;;;;;4967202;28;20579;-76
2022/08/22 10:56:21;;;;;;;1.90;1.80;;;;;;;;;;4968518;28;21227;-75
2022/08/22 10:58:59;;;;;;;2.47;1.57;;;;;;;;;;4971630;28;20437;-77
2022/08/22 11:01:28;;;;;;;5.23;1.87;;;;;;;;;;4970892;28;20444;-77
2022/08/22 11:04:20;;;;;;;2.43;2.23;;;;;;;;;;4970285;28;20425;-83
2022/08/22 11:07:07;;;;;;;2.03;1.93;;;;;;;;;;4958478;28;20438;-82
2022/08/22 11:09:39;;;;;;;3.10;2.40;;;;;;;;;;4969920;28;20426;-83
2022/08/22 11:12:22;;;;;;;2.60;2.10;;;;;;;;;;4967729;28;20728;-83
2022/08/22 11:15:07;;;;;;;5.43;2.60;;;;;;;;;;4969661;28;20438;-81
2022/08/22 11:17:52;;;;;;;2.40;2.30;;;;;;;;;;4969680;28;20442;-82
2022/08/22 11:20:27;;;;;;;4.50;2.53;;;;;;;;;;4969417;28;20430;-81
2022/08/22 11:23:12;;;;;;;8.13;2.43;;;;;;;;;;4967205;28;20924;-79
2022/08/22 11:25:41;;;;;;;2.60;2.43;;;;;;;;;;4969696;28;20938;-76
2022/08/22 11:28:17;;;;;;;6.10;2.70;;;;;;;;;;4971286;28;20473;-83
2022/08/22 11:30:49;;;;;;;4.33;2.83;;;;;;;;;;4971542;28;20444;-67
2022/08/22 11:33:23;;;;;;;1.67;1.57;;;;;;;;;;4969892;28;20497;-67
2022/08/22 11:36:09;;;;;;;2.50;2.30;;;;;;;;;;4968856;28;20817;-67
2022/08/22 11:38:56;;;;;;;2.00;1.60;;;;;;;;;;4970551;28;20441;-67
2022/08/22 11:41:25;;;;;;;3.33;2.30;;;;;;;;;;4972073;28;20437;-67
2022/08/22 11:44:00;;;;;;;5.13;2.33;;;;;;;;;;4973807;28;20477;-79
2022/08/22 11:46:29;;;;;;;4.43;2.40;;;;;;;;;;4973409;28;20428;-78
2022/08/22 11:48:55;;;;;;;4.33;1.87;;;;;;;;;;4974516;28;21172;-75
2022/08/22 11:51:36;;;;;;;3.50;2.20;;;;;;;;;;4974198;28;20452;-81
2022/08/22 11:54:19;;;;;;;3.40;2.63;;;;;;;;;;4972447;28;20657;-78
2022/08/22 11:56:49;;;;;;;3.40;2.90;;;;;;;;;;4970773;28;20537;-82
2022/08/22 11:59:22;;;;;;;2.83;2.70;;;;;;;;;;4973656;28;20442;-80
2022/08/22 12:01:55;;;;;;;3.60;2.50;;;;;;;;;;4969723;28;20533;-84
2022/08/22 12:04:41;;;;;;;2.57;2.57;;;;;;;;;;4972865;28;20502;-85
2022/08/22 12:07:17;;;;;;;3.63;2.17;;;;;;;;;;4971671;28;20975;-78
2022/08/22 12:10:02;;;;;;;2.57;2.37;;;;;;;;;;4972461;28;20843;-80
2022/08/22 12:12:37;;;;;;;3.17;2.40;;;;;;;;;;4972447;28;20488;-83
2022/08/22 12:15:09;;;;;;;5.73;2.10;;;;;;;;;;4972343;28;20433;-82
2022/08/22 12:17:54;;;;;;;2.33;2.17;;;;;;;;;;4972883;28;20429;-83
2022/08/22 12:20:40;;;;;;;2.30;2.20;;;;;;;;;;4973356;28;20914;-83
2022/08/22 12:23:25;;;;;;;2.70;2.57;;;;;;;;;;4967631;28;20958;-80
2022/08/22 12:25:54;;;;;;;2.60;2.33;;;;;;;;;;4972274;28;20445;-79
2022/08/22 12:28:23;;;;;;;2.10;2.00;;;;;;;;;;4972576;28;20480;-82
2022/08/22 12:31:08;;;;;;;1.60;1.60;;;;;;;;;;4973372;28;20453;-81
2022/08/22 12:33:55;;;;;;;3.37;2.50;;;;;;;;;;4973107;28;20552;-81
2022/08/22 12:36:24;;;;;;;2.93;2.23;;;;;;;;;;4972073;28;20436;-80
2022/08/22 12:38:50;;;;;;;4.03;2.40;;;;;;;;;;4972993;28;20449;-80
2022/08/22 12:41:29;;;;;;;11.67;2.40;;;;;;;;;;4972768;28;20425;-77
2022/08/22 12:43:58;;;;;;;5.60;2.20;;;;;;;;;;4971566;28;20437;-76
2022/08/22 12:46:32;;;;;;;2.60;2.43;;;;;;;;;;4970553;28;20434;-77
2022/08/22 12:48:58;;;;;;;4.40;2.30;;;;;;;;;;4972373;28;20470;-78
2022/08/22 12:51:23;;;;;;;4.53;2.27;;;;;;;;;;4972449;28;21045;-84
2022/08/22 12:54:01;;;;;;;3.73;2.20;;;;;;;;;;4971177;28;20765;-82
2022/08/22 12:56:37;;;;;;;2.03;2.03;;;;;;;;;;4973410;28;20711;-80
2022/08/22 12:59:26;;;;;;;3.27;2.97;;;;;;;;;;4971932;28;20503;-85
2022/08/22 13:01:55;;;;;;;2.10;1.90;;;;;;;;;;4972594;28;20586;-81
2022/08/22 13:04:23;;;;;;;2.43;2.40;;;;;;;;;;4972195;28;20554;-85
2022/08/22 13:06:55;;;;;;;2.53;2.43;;;;;;;;;;4970894;28;20439;-82
2022/08/22 13:09:30;;;;;;;2.97;1.90;;;;;;;;;;4973988;28;20434;-83
2022/08/22 13:12:02;;;;;;;3.07;2.13;;;;;;;;;;4972475;28;20954;-75
2022/08/22 13:14:32;;;;;;;2.73;2.27;;;;;;;;;;4970323;28;20492;-82
2022/08/22 13:17:01;;;;;;;2.10;2.00;;;;;;;;;;4970408;28;20525;-76
2022/08/22 13:19:31;;;;;;;2.53;2.40;;;;;;;;;;4973592;28;20450;-85
2022/08/22 13:22:02;;;;;;;3.90;2.53;;;;;;;;;;4972889;28;20454;-85
2022/08/22 13:24:46;;;;;;;2.57;2.37;;;;;;;;;;4973275;28;20425;-78
2022/08/22 13:27:31;;;;;;;3.33;2.50;;;;;;;;;;4972279;28;20445;-81
2022/08/22 13:30:01;;;;;;;3.63;2.30;;;;;;;;;;4971105;28;20438;-76
2022/08/22 13:32:27;;;;;;;5.30;2.20;;;;;;;;;;4970815;28;20565;-76
2022/08/22 13:34:55;;;;;;;2.50;2.40;;;;;;;;;;4970460;28;20481;-76
2022/08/22 13:37:25;;;;;;;2.87;2.07;;;;;;;;;;4972057;28;20433;-84
2022/08/22 13:39:53;;;;;;;2.33;2.23;;;;;;;;;;4971980;28;20517;-83
2022/08/22 13:42:23;;;;;;;3.73;2.83;;;;;;;;;;4972003;28;20448;-85
2022/08/22 13:44:51;;;;;;;4.40;1.87;;;;;;;;;;4971248;28;20476;-81
2022/08/22 13:47:20;;;;;;;2.30;2.20;;;;;;;;;;4972305;28;20426;-83
2022/08/22 13:49:49;;;;;;;2.10;1.90;;;;;;;;;;4971582;28;20957;-80
2022/08/22 13:52:27;;;;;;;1.67;1.67;;;;;;;;;;4971581;28;20486;-78
2022/08/22 13:55:09;;;;;;;2.80;1.93;;;;;;;;;;4970498;28;20461;-83
2022/08/22 13:57:37;;;;;;;1.90;1.90;;;;;;;;;;4972248;28;20470;-84
2022/08/22 14:00:10;;;;;;;7.93;2.10;;;;;;;;;;4972237;28;20513;-83
2022/08/22 14:02:55;;;;;;;2.47;2.03;;;;;;;;;;4971480;28;20801;-83
2022/08/22 14:05:30;;;;;;;4.67;2.40;;;;;;;;;;4971822;28;20422;-79
2022/08/22 14:08:19;;;;;;;2.20;2.10;;;;;;;;;;4970168;28;20512;-84
2022/08/22 14:10:51;;;;;;;2.10;2.10;;;;;;;;;;4971244;28;20541;-80
2022/08/22 14:13:30;;;;;;;4.97;2.30;;;;;;;;;;4971610;28;20567;-85
2022/08/22 14:16:04;;;;;;;1.80;1.70;;;;;;;;;;4971252;28;20492;-83
2022/08/22 14:18:35;;;;;;;3.70;2.37;;;;;;;;;;4971069;28;20584;-80
2022/08/22 14:21:20;;;;;;;3.13;2.70;;;;;;;;;;4970149;28;20434;-80
2022/08/22 14:23:50;;;;;;;2.70;2.30;;;;;;;;;;4970989;28;20437;-79
2022/08/22 14:26:23;;;;;;;1.50;1.50;;;;;;;;;;4971183;28;20430;-78
2022/08/22 14:28:49;;;;;;;2.30;2.10;;;;;;;;;;4971015;28;20471;-84
2022/08/22 14:31:21;;;;;;;2.63;1.80;;;;;;;;;;4971432;28;20434;-83
2022/08/22 14:33:53;;;;;;;4.67;1.77;;;;;;;;;;4970886;28;20486;-83
2022/08/22 14:36:21;;;;;;;2.70;2.10;;;;;;;;;;4970958;28;20430;-82
2022/08/22 14:38:57;;;;;;;4.40;2.47;;;;;;;;;;4971068;28;20950;-80
2022/08/22 14:41:27;;;;;;;2.37;2.20;;;;;;;;;;4970287;28;20934;-80
2022/08/22 14:44:01;;;;;;;2.90;2.00;;;;;;;;;;4970865;28;20434;-80
2022/08/22 14:46:33;;;;;;;1.47;1.40;;;;;;;;;;4970834;28;20452;-84
2022/08/22 14:49:17;;;;;;;1.60;1.60;;;;;;;;;;4971491;28;20805;-85
2022/08/22 14:51:49;;;;;;;2.80;2.40;;;;;;;;;;4970444;28;20938;-81
2022/08/22 14:54:19;;;;;;;2.20;2.00;;;;;;;;;;4969369;28;20440;-85
2022/08/22 14:56:47;;;;;;;2.47;2.30;;;;;;;;;;4971423;28;20460;-85
2022/08/22 14:59:23;;;;;;;4.33;2.60;;;;;;;;;;4970911;28;20973;-84
2022/08/22 15:02:00;;;;;;;1.80;1.80;;;;;;;;;;4970961;28;20497;-79
2022/08/22 15:04:35;;;;;;;1.90;1.80;;;;;;;;;;4970498;28;20433;-82
2022/08/22 15:07:02;;;;;;;3.60;1.47;;;;;;;;;;4969561;28;20468;-78
2022/08/22 15:09:32;;;;;;;1.77;1.60;;;;;;;;;;4969422;28;20500;-84
2022/08/22 15:11:58;;;;;;;1.70;1.60;;;;;;;;;;4971827;28;20440;-86
2022/08/22 15:14:26;;;;;;;7.50;1.90;;;;;;;;;;4970042;28;20456;-81
2022/08/22 15:17:00;;;;;;;5.83;4.03;;;;;;;;;;4969921;28;20476;-80
2022/08/22 15:19:28;;;;;;;2.47;2.37;;;;;;;;;;4968262;28;20434;-81
2022/08/22 15:22:03;;;;;;;3.80;1.97;;;;;;;;;;4969617;28;20949;-79
2022/08/22 15:24:30;;;;;;;3.00;2.67;;;;;;;;;;4970968;28;20433;-75
2022/08/22 15:26:56;;;;;;;2.70;1.63;;;;;;;;;;4969762;28;20414;-84
2022/08/22 15:29:24;;;;;;;3.70;2.17;;;;;;;;;;4970308;28;20453;-80
2022/08/22 15:31:55;;;;;;;2.30;2.30;;;;;;;;;;4970178;28;20774;-82